Nearby METAR Reports

 

KSEE - San Diego/Santee, California, USA
Distance from station: E 4mi, 6km
Updated: Mon, 25-Jan-2021 10:47am PST
Mostly cloudy
Mostly cloudy
 Wind from W
Wind: W 23 mph , 37 km/h, Gust: 30 mph , 48 km/h
Temperature: 52°F , 11°C
Dew Point: 36°F , 2°C
Humidity: 54%
Barometer: 29.84 inHg , 1010.5 hPa
Clouds: Mostly cloudy
Visibility: 10 miles , 16 km
Cloud details: Few Clouds 3500 ft
Partly cloudy 4600 ft
Mostly cloudy 8000 ft
2021/01/25 18:47 KSEE 251847Z 26020G26KT 10SM FEW035 SCT046 BKN080 11/02 A2984
KMYF - San Diego/Mntgmy, California, USA
Distance from station: W 6mi, 10km
Updated: Mon, 25-Jan-2021 10:53am PST
Mostly cloudy
Mostly cloudy
 Wind from W
Wind: W 26 mph , 43 km/h, Gust: 35 mph , 56 km/h
Temperature: 52°F , 11°C
Dew Point: 37°F , 3°C
Humidity: 58%
Barometer: 29.83 inHg , 1010.2 hPa
Clouds: Mostly cloudy
Visibility: 10 miles , 16 km
Cloud details: Few Clouds 3100 ft
Partly cloudy 5500 ft
Mostly cloudy 7000 ft
2021/01/25 18:53 KMYF 251853Z 26023G30KT 10SM FEW031 SCT055 BKN070 11/03 A2983 RMK AO2 PK WND 26032/1754 RAE12 SLP100 P0000 T01060033
 
KNKX - Miramar Nas/San, California, USA
Distance from station: WNW 7mi, 11km
Updated: Mon, 25-Jan-2021 10:55am PST
Overcast
Overcast
 Wind from W
Wind: W 22 mph , 35 km/h, Gust: 35 mph , 56 km/h
Temperature: 52°F , 11°C
Dew Point: 39°F , 4°C
Humidity: 62%
Barometer: 29.83 inHg , 1010.2 hPa
Clouds: Overcast
Visibility: 10 miles , 16 km
Cloud details: Few Clouds 3800 ft
Mostly cloudy 8000 ft
Overcast 11000 ft
2021/01/25 18:55 KNKX 251855Z 27019G30KT 10SM FEW038 BKN080 OVC110 11/04 A2983 RMK AO2 PK WND 27033/1835 RAE20 SLP097 P0000 T01060044 $
KSAN - San Diego, California, USA
Distance from station: WSW 11mi, 17km
Updated: Mon, 25-Jan-2021 10:51am PST
Light rain, Mostly cloudy
Light rain, Mostly cloudy
 Wind from WNW
Wind: WNW 23 mph , 37 km/h, Gust: 36 mph , 57 km/h
Temperature: 54°F , 12°C
Dew Point: 39°F , 4°C
Humidity: 58%
Barometer: 29.87 inHg , 1011.5 hPa
Summary: Light rain
Clouds: Mostly cloudy
Visibility: 10 miles , 16 km
Cloud details: Partly cloudy 3000 ft
Mostly cloudy 4500 ft
Mostly cloudy 7500 ft
2021/01/25 18:51 KSAN 251851Z 29020G31KT 10SM -RA SCT030 BKN045 BKN075 12/04 A2987 RMK AO2 PK WND 28041/1754 RAE10B46 SLP115 P0001 T01220044
 
KNZY - North Island Nas, California, USA
Distance from station: SW 13mi, 22km
Updated: Mon, 25-Jan-2021 10:52am PST
Mostly cloudy
Mostly cloudy
 Wind from WNW
Wind: WNW 26 mph , 43 km/h, Gust: 35 mph , 56 km/h
Temperature: 54°F , 12°C
Dew Point: 39°F , 4°C
Humidity: 58%
Barometer: 29.85 inHg , 1010.8 hPa
Clouds: Mostly cloudy
Visibility: 10 miles , 16 km
Cloud details: Few Clouds 1500 ft
Mostly cloudy 4200 ft
Mostly cloudy 11000 ft
2021/01/25 18:52 KNZY 251852Z 29023G30KT 10SM FEW015 BKN042 BKN110 12/04 A2985 RMK AO2 PK WND 31036/1758 RAE10 SLP107 P0000 T01170039
KRNM - Ramona, California, USA
Distance from station: NNE 16mi, 26km
Updated: Mon, 25-Jan-2021 10:55am PST
Light rain, Overcast
Light rain, Overcast
 Wind from WSW
Wind: WSW 22 mph , 35 km/h, Gust: 36 mph , 57 km/h
Temperature: 45°F , 7°C
Wind Chill: 37°F , 3°C
Dew Point: 36°F , 2°C
Humidity: 71%
Barometer: 29.77 inHg , 1008.1 hPa
Summary: Light rain
Clouds: Overcast
Visibility: 10 miles , 16 km
Cloud details: Mostly cloudy 3200 ft
Mostly cloudy 4400 ft
Overcast 7000 ft
2021/01/25 18:55 KRNM 251855Z 25019G31KT 10SM -RA BKN032 BKN044 OVC070 07/02 A2977 RMK AO2 P0000 T00670017
 
KSDM - San Diego/Brown, California, USA
Distance from station: S 16mi, 26km
Updated: Mon, 25-Jan-2021 10:53am PST
Mostly cloudy
Mostly cloudy
 Wind from WNW
Wind: WNW 17 mph , 28 km/h, Gust: 29 mph , 46 km/h
Temperature: 52°F , 11°C
Dew Point: 37°F , 3°C
Humidity: 58%
Barometer: 29.84 inHg , 1010.5 hPa
Clouds: Mostly cloudy
Visibility: 10 miles , 16 km
Cloud details: Partly cloudy 3300 ft
Mostly cloudy 4900 ft
Mostly cloudy 6500 ft
2021/01/25 18:53 KSDM 251853Z 29015G25KT 10SM SCT033 BKN049 BKN065 11/03 A2984 RMK AO2 PK WND 26032/1759 RAB21E34 SLP102 P0000 T01060028
KNRS - Imperial Beach, California, USA
Distance from station: SSW 18mi, 29km
Updated: Mon, 25-Jan-2021 11:17am PST
Light rain, Mostly cloudy
Light rain, Mostly cloudy
 Wind from W
Wind: W 23 mph , 37 km/h, Gust: 30 mph , 48 km/h
Temperature: 55°F , 13°C
Dew Point: 39°F , 4°C
Humidity: 55%
Barometer: 29.88 inHg , 1011.9 hPa
Summary: Light rain
Clouds: Mostly cloudy
Visibility: 4 miles , 6 km
Cloud details: Few Clouds 2500 ft
Mostly cloudy 4100 ft
Mostly cloudy 8000 ft
2021/01/25 19:17 KNRS 251917Z 26020G26KT 4SM -RA FEW025 BKN041 BKN080 13/04 A2988 RMK AO2 RAB04 T01280039 $
 
MMTJ - Tijuana Intl Arp, Mexico
Distance from station: S 20mi, 32km
Updated: Mon, 25-Jan-2021 10:42am PST
Overcast
Overcast
 Wind from WNW
Wind: WNW 20 mph , 31 km/h
Temperature: 50°F , 10°C
Wind Chill: 44°F , 7°C
Dew Point: 41°F , 5°C
Humidity: 71%
Barometer: 29.88 inHg , 1011.9 hPa
Clouds: Overcast
Visibility: 7 miles , 11 km
Cloud details: Partly cloudy 2000 ft
Overcast 3000 ft
2021/01/25 18:42 MMTJ 251842Z 29017KT 7SM SCT020 OVC030CB 10/05 A2988 RMK 60005 8/3// RAE22 GSB23E24 HZY
KCRQ - Carlsbad, California, USA
Distance from station: NW 26mi, 43km
Updated: Mon, 25-Jan-2021 10:53am PST
Mostly cloudy
Mostly cloudy
 Wind from W
Wind: W 17 mph , 28 km/h, Gust: 29 mph , 46 km/h
Temperature: 52°F , 11°C
Dew Point: 36°F , 2°C
Humidity: 54%
Barometer: 29.81 inHg , 1009.5 hPa
Clouds: Mostly cloudy
Visibility: 10 miles , 16 km
Cloud details: Partly cloudy 7000 ft
Mostly cloudy 11000 ft
2021/01/25 18:53 KCRQ 251853Z 26015G25KT 10SM SCT070 BKN110 11/02 A2981 RMK AO2 SLP092 T01110022
 
KOKB - Oceanside, California, USA
Distance from station: NW 33mi, 54km
Updated: Mon, 25-Jan-2021 10:52am PST
Few Clouds
Few Clouds
 Wind from W
Wind: W 18 mph , 30 km/h, Gust: 30 mph , 48 km/h
Temperature: 54°F , 12°C
Dew Point: 36°F , 2°C
Humidity: 51%
Barometer: 29.81 inHg , 1009.5 hPa
Clouds: Few Clouds
Visibility: 10 miles , 16 km
Cloud details: Few Clouds 7500 ft
Few Clouds 9500 ft
2021/01/25 18:52 KOKB 251852Z AUTO 27016G26KT 10SM FEW075 FEW095 12/02 A2981 RMK AO2 PK WND 26029/1811 RAB1755E10 SLP093 P0002 T01220022
KCZZ - Campo, California, USA
Distance from station: ESE 35mi, 56km
Updated: Mon, 26-Oct-2020 8:52am PDT
NOT Current

 Wind from NE
Wind: NE 14 mph , 22 km/h, Gust: 20 mph , 31 km/h
Temperature: 48°F , 9°C
Wind Chill: 42°F , 6°C
Dew Point: 27°F , -3°C
Humidity: 43%
Barometer: 29.99 inHg , 1015.6 hPa
2020/10/26 15:52 KCZZ 261552Z AUTO 05012G17KT 09/M03 A2999 RMK AO1 SLP140 T00891028
 
KNFG - Camp Pendleton, California, USA
Distance from station: NNW 37mi, 59km
Updated: Mon, 25-Jan-2021 11:31am PST
Hail, Mostly cloudy
Hail, Mostly cloudy
 Wind from W
Wind: W 13 mph , 20 km/h, Gust: 25 mph , 41 km/h
Temperature: 50°F , 10°C
Wind Chill: 45°F , 7°C
Dew Point: 36°F , 2°C
Humidity: 58%
Barometer: 29.79 inHg , 1008.8 hPa
Summary: Hail
Clouds: Mostly cloudy
Visibility: 4 miles , 6 km
Cloud details: Partly cloudy 3500 ft
Mostly cloudy 4500 ft
Mostly cloudy 9000 ft
2021/01/25 19:31 KNFG 251931Z 28011G22KT 4SM GR SCT035 BKN045 BKN090 10/02 A2979 RMK AO2 PK WND 27034/1913 GRB26 P0001 T01000022 $
KRIV - Riverside/March, California, USA
Distance from station: N 74mi, 119km
Updated: Mon, 25-Jan-2021 10:58am PST
Clear
Clear
 Wind from WNW
Wind: WNW 18 mph , 30 km/h, Gust: 25 mph , 41 km/h
Temperature: 46°F , 8°C
Wind Chill: 39°F , 4°C
Dew Point: 30°F , -1°C
Humidity: 53%
Barometer: 29.72 inHg , 1006.4 hPa
Clouds: Clear
Visibility: 10 miles , 16 km
2021/01/25 18:58 KRIV 251858Z AUTO 30016G22KT 10SM CLR 08/M01 A2972 RMK AO2 SLP065 T00801013
 
KTRM - Thermal/Palm Spg, California, USA
Distance from station: NE 75mi, 121km
Updated: Mon, 25-Jan-2021 10:52am PST
Clear
Clear
 Wind from NW
Wind: NW 6 mph , 9 km/h
Temperature: 55°F , 13°C
Dew Point: 34°F , 1°C
Humidity: 44%
Barometer: 29.70 inHg , 1005.8 hPa
Clouds: Clear
Visibility: 10 miles , 16 km
2021/01/25 18:52 KTRM 251852Z AUTO 31005KT 10SM CLR 13/01 A2970 RMK AO2 SLP059 T01280006 $
KPSP - Palm Springs, California, USA
Distance from station: NNE 76mi, 122km
Updated: Mon, 25-Jan-2021 11:28am PST
Few Clouds
Few Clouds
 Wind from N
Wind: N 16 mph , 26 km/h, Gust: 28 mph , 44 km/h
Temperature: 55°F , 13°C
Dew Point: 23°F , -5°C
Humidity: 28%
Barometer: 29.68 inHg , 1005.1 hPa
Clouds: Few Clouds
Visibility: 10 miles , 16 km
Cloud details: Few Clouds 9000 ft
2021/01/25 19:28 KPSP 251928Z 35014G24KT 10SM FEW090 13/M05 A2968 RMK AO2 WSHFT 1908 T01281050
 
KSNA - Costa Mesa, California, USA
Distance from station: NW 76mi, 123km
Updated: Mon, 25-Jan-2021 10:53am PST
Few Clouds
Few Clouds
 Wind from W
Wind: W 15 mph , 24 km/h, Gust: 25 mph , 41 km/h
Temperature: 54°F , 12°C
Dew Point: 36°F , 2°C
Humidity: 51%
Barometer: 29.78 inHg , 1008.5 hPa
Clouds: Few Clouds
Visibility: 10 miles , 16 km
Cloud details: Few Clouds 4000 ft
2021/01/25 18:53 KSNA 251853Z 27013G22KT 10SM FEW040 12/02 A2978 RMK AO2 SLP084 T01220017
KNJK - El Centro Naf, California, USA
Distance from station: E 79mi, 127km
Updated: Mon, 25-Jan-2021 10:56am PST
Mostly cloudy
Mostly cloudy
 Wind from W
Wind: W 25 mph , 41 km/h, Gust: 36 mph , 57 km/h
Temperature: 57°F , 14°C
Dew Point: 28°F , -2°C
Humidity: 33%
Barometer: 29.78 inHg , 1008.5 hPa
Clouds: Mostly cloudy
Visibility: 10 miles , 16 km
Cloud details: Few Clouds 6000 ft
Few Clouds 9000 ft
Mostly cloudy 15000 ft
2021/01/25 18:56 KNJK 251856Z 26022G31KT 10SM FEW060 FEW090 BKN150 14/M02 A2978 RMK PK WND 26039/1822 SLP101 T01441017
 
KAJO - Corona Muni, California, USA
Distance from station: NNW 82mi, 132km
Updated: Mon, 25-Jan-2021 10:56am PST
Partly cloudy
Partly cloudy
 
Clouds: Partly cloudy
Visibility: 10 miles , 16 km
Cloud details: Partly cloudy 4700 ft
2021/01/25 18:56 KAJO 251856Z AUTO 10SM SCT047 RMK AO2 SLPNO FZRANO $